createdAt,value
2022-11-17T00:01:21.183Z,9.71
2022-11-17T00:03:48.804Z,9.63
2022-11-17T00:06:16.227Z,9.69
2022-11-17T00:08:42.639Z,9.45
2022-11-17T00:11:09.081Z,9.60
2022-11-17T00:13:54.082Z,9.62
2022-11-17T00:16:21.483Z,9.72
2022-11-17T00:19:07.005Z,9.79
2022-11-17T00:21:33.886Z,9.48
2022-11-17T00:24:00.242Z,9.66
2022-11-17T00:26:29.094Z,9.79
2022-11-17T00:29:05.404Z,9.66
2022-11-17T00:31:51.380Z,9.75
2022-11-17T00:34:20.036Z,9.62
2022-11-17T00:36:49.151Z,9.60
2022-11-17T00:39:16.625Z,9.65
2022-11-17T00:41:43.336Z,9.61
2022-11-17T00:44:10.102Z,9.44
2022-11-17T00:46:37.380Z,9.58
2022-11-17T00:49:04.764Z,9.55
2022-11-17T00:51:31.449Z,9.75
2022-11-17T00:53:57.867Z,9.67
2022-11-17T00:56:25.649Z,9.76
2022-11-17T00:58:52.535Z,9.68
2022-11-17T01:01:19.490Z,9.66
2022-11-17T01:03:45.936Z,9.66
2022-11-17T01:06:19.926Z,9.54
2022-11-17T01:08:46.804Z,9.73
2022-11-17T01:11:18.519Z,9.77
2022-11-17T01:13:46.409Z,9.56
2022-11-17T01:16:18.527Z,9.68
2022-11-17T01:18:46.316Z,9.67
2022-11-17T01:21:21.330Z,9.85
2022-11-17T01:23:49.299Z,9.82
2022-11-17T01:26:21.818Z,9.72
2022-11-17T01:28:48.748Z,9.82
2022-11-17T01:31:18.147Z,9.84
2022-11-17T01:33:45.465Z,9.82
2022-11-17T01:36:14.659Z,9.86
2022-11-17T01:38:41.572Z,9.70
2022-11-17T01:41:14.228Z,9.81
2022-11-17T01:43:43.526Z,9.84
2022-11-17T01:46:15.302Z,9.84
2022-11-17T01:48:42.634Z,9.76
2022-11-17T01:51:10.527Z,9.79
2022-11-17T01:53:37.156Z,9.93
2022-11-17T01:56:07.437Z,9.74
2022-11-17T01:58:36.497Z,9.89
2022-11-17T02:01:02.862Z,9.84
2022-11-17T02:03:32.563Z,9.71
2022-11-17T02:06:11.883Z,9.96
2022-11-17T02:08:40.295Z,9.96
2022-11-17T02:11:11.848Z,10.18
2022-11-17T02:13:38.943Z,10.08
2022-11-17T02:16:06.911Z,10.05
2022-11-17T02:18:33.278Z,10.04
2022-11-17T02:21:23.538Z,10.25
2022-11-17T02:24:08.583Z,10.17
2022-11-17T02:26:48.251Z,10.23
2022-11-17T02:29:23.574Z,10.24
2022-11-17T02:32:05.483Z,10.08
2022-11-17T02:34:42.639Z,10.10
2022-11-17T02:37:30.784Z,10.22
2022-11-17T02:40:08.035Z,10.03
2022-11-17T02:43:03.714Z,10.15
2022-11-17T02:45:35.121Z,10.27
2022-11-17T02:48:02.275Z,10.33
2022-11-17T02:50:29.688Z,10.16
2022-11-17T02:52:56.557Z,10.19
2022-11-17T02:55:22.954Z,10.32
2022-11-17T02:57:49.743Z,10.32
2022-11-17T03:00:20.165Z,10.23
2022-11-17T03:03:20.463Z,10.31
2022-11-17T03:06:17.832Z,10.35
2022-11-17T03:08:53.708Z,10.37
2022-11-17T03:11:23.306Z,10.27
2022-11-17T03:14:00.730Z,10.41
2022-11-17T03:17:12.191Z,10.36
2022-11-17T03:19:44.939Z,10.26
2022-11-17T03:22:17.391Z,10.41
2022-11-17T03:24:51.995Z,10.36
2022-11-17T03:27:21.940Z,10.24
2022-11-17T03:29:49.419Z,10.29
2022-11-17T03:32:17.003Z,10.42
2022-11-17T03:34:49.712Z,10.30
2022-11-17T03:37:18.997Z,10.28
2022-11-17T03:39:49.974Z,10.44
2022-11-17T03:42:24.016Z,10.48
2022-11-17T03:45:06.282Z,10.38
2022-11-17T03:47:32.794Z,10.29
2022-11-17T03:50:16.042Z,10.36
2022-11-17T03:52:43.458Z,10.22
2022-11-17T03:55:10.058Z,10.45
2022-11-17T03:57:52.724Z,10.45
2022-11-17T04:00:19.737Z,10.42
2022-11-17T04:02:48.275Z,10.47
2022-11-17T04:05:16.954Z,10.53
2022-11-17T04:07:45.149Z,10.57
2022-11-17T04:10:19.975Z,10.58
2022-11-17T04:13:06.106Z,10.57
2022-11-17T04:15:51.107Z,10.48
2022-11-17T04:18:17.893Z,10.41
2022-11-17T04:20:44.768Z,10.52
2022-11-17T04:23:14.525Z,10.52
2022-11-17T04:26:00.439Z,10.54
2022-11-17T04:28:36.791Z,10.53
2022-11-17T04:31:17.820Z,10.35
2022-11-17T04:33:49.046Z,10.62
2022-11-17T04:36:20.440Z,10.46
2022-11-17T04:38:50.015Z,10.64
2022-11-17T04:41:35.962Z,10.28
2022-11-17T04:44:02.945Z,10.57
2022-11-17T04:46:30.879Z,10.74
2022-11-17T04:48:57.848Z,10.61
2022-11-17T04:51:25.117Z,10.48
2022-11-17T04:53:52.169Z,10.50
2022-11-17T04:56:19.795Z,10.49
2022-11-17T04:58:46.314Z,10.46
2022-11-17T05:01:12.917Z,10.54
2022-11-17T05:03:47.729Z,10.53
2022-11-17T05:06:19.886Z,10.50
2022-11-17T05:08:46.605Z,10.55
2022-11-17T05:11:32.628Z,10.58
2022-11-17T05:13:59.422Z,10.57
2022-11-17T05:16:45.015Z,10.44
2022-11-17T05:19:15.230Z,10.52
2022-11-17T05:21:41.719Z,10.49
2022-11-17T05:24:08.625Z,10.55
2022-11-17T05:26:36.968Z,10.56
2022-11-17T05:29:05.967Z,10.54
2022-11-17T05:31:32.551Z,10.19
2022-11-17T05:33:59.900Z,10.54
2022-11-17T05:36:27.235Z,10.53
2022-11-17T05:38:54.244Z,10.47
2022-11-17T05:41:20.697Z,10.42
2022-11-17T05:43:47.295Z,10.44
2022-11-17T05:46:13.860Z,10.40
2022-11-17T05:48:40.414Z,10.25
2022-11-17T05:51:06.942Z,10.37
2022-11-17T05:53:33.745Z,10.41
2022-11-17T05:56:24.717Z,10.46
2022-11-17T05:58:53.278Z,10.35
2022-11-17T06:01:20.816Z,10.22
2022-11-17T06:03:51.603Z,10.35
2022-11-17T06:06:18.049Z,10.25
2022-11-17T06:08:44.397Z,10.26
2022-11-17T06:11:10.826Z,10.42
2022-11-17T06:13:37.579Z,10.07
2022-11-17T06:16:07.047Z,10.32
2022-11-17T06:18:47.852Z,10.18
2022-11-17T06:21:15.772Z,10.32
2022-11-17T06:23:42.596Z,10.28
2022-11-17T06:26:09.879Z,10.34
2022-11-17T06:28:37.524Z,10.45
2022-11-17T06:31:05.082Z,10.41
2022-11-17T06:33:31.792Z,10.46
2022-11-17T06:35:59.759Z,10.34
2022-11-17T06:38:26.521Z,10.23
2022-11-17T06:40:52.897Z,10.59
2022-11-17T06:43:19.288Z,10.49
2022-11-17T06:45:46.788Z,10.31
2022-11-17T06:48:16.365Z,10.49
2022-11-17T06:50:43.316Z,10.71
2022-11-17T06:53:11.838Z,10.77
2022-11-17T06:55:38.727Z,10.63
2022-11-17T06:58:07.134Z,10.62
2022-11-17T07:00:35.230Z,10.66
2022-11-17T07:03:07.637Z,10.69
2022-11-17T07:05:35.350Z,10.68
2022-11-17T07:08:04.489Z,10.51
2022-11-17T07:10:32.293Z,10.63
2022-11-17T07:12:59.057Z,10.62
2022-11-17T07:15:27.894Z,10.70
2022-11-17T07:17:54.368Z,10.69
2022-11-17T07:20:20.860Z,10.65
2022-11-17T07:22:48.513Z,10.70
2022-11-17T07:25:21.102Z,10.76
2022-11-17T07:27:48.905Z,10.81
2022-11-17T07:30:15.638Z,10.55
2022-11-17T07:32:42.122Z,10.66
2022-11-17T07:35:08.830Z,10.64
2022-11-17T07:37:35.714Z,10.63
2022-11-17T07:40:02.154Z,10.36
2022-11-17T07:42:28.657Z,10.78
2022-11-17T07:44:55.118Z,10.41
2022-11-17T07:47:21.592Z,10.60
2022-11-17T07:49:48.064Z,10.89
2022-11-17T07:52:14.525Z,10.84
2022-11-17T07:54:41.104Z,10.61
2022-11-17T07:57:07.514Z,10.64
2022-11-17T07:59:33.906Z,10.52
2022-11-17T08:02:00.305Z,10.63
2022-11-17T08:04:26.773Z,10.57
2022-11-17T08:06:53.220Z,10.60
2022-11-17T08:09:19.851Z,10.60
2022-11-17T08:11:46.345Z,10.59
2022-11-17T08:14:12.765Z,10.61
2022-11-17T08:16:39.208Z,10.52
2022-11-17T08:19:06.245Z,10.57
2022-11-17T08:21:32.771Z,10.64
2022-11-17T08:24:00.174Z,10.62
2022-11-17T08:26:26.720Z,10.37
2022-11-17T08:28:58.109Z,10.46
2022-11-17T08:31:25.250Z,10.49
2022-11-17T08:33:51.659Z,10.50
2022-11-17T08:36:18.050Z,10.57
2022-11-17T08:38:44.451Z,10.45
2022-11-17T08:41:11.001Z,10.40
2022-11-17T08:43:37.433Z,10.38
2022-11-17T08:46:04.249Z,10.44
2022-11-17T08:48:31.715Z,10.34
2022-11-17T08:50:58.703Z,10.53
2022-11-17T08:53:25.201Z,10.57
2022-11-17T08:55:52.215Z,10.43
2022-11-17T08:58:18.868Z,10.54
2022-11-17T09:00:47.277Z,10.45
2022-11-17T09:03:14.461Z,10.30
2022-11-17T09:05:42.889Z,10.28
2022-11-17T09:08:43.257Z,10.42
2022-11-17T09:10:55.880Z,10.31
2022-11-17T09:13:22.259Z,10.35
2022-11-17T09:15:48.744Z,10.31
2022-11-17T09:18:15.202Z,10.13
2022-11-17T09:20:45.676Z,10.31
2022-11-17T09:23:12.476Z,10.57
2022-11-17T09:25:38.910Z,10.52
2022-11-17T09:28:05.288Z,10.38
2022-11-17T09:30:31.666Z,10.54
2022-11-17T09:32:58.086Z,10.53
2022-11-17T09:35:24.474Z,10.64
2022-11-17T09:37:50.841Z,10.67
2022-11-17T09:40:19.222Z,10.66
2022-11-17T09:42:45.987Z,10.58
2022-11-17T09:45:20.741Z,10.62
2022-11-17T09:48:12.377Z,10.37
2022-11-17T09:50:45.541Z,10.41
2022-11-17T09:53:29.064Z,10.37
2022-11-17T09:56:02.501Z,10.38
2022-11-17T09:58:51.340Z,10.42
2022-11-17T10:01:20.110Z,10.41
2022-11-17T10:03:48.386Z,10.49
2022-11-17T10:06:19.318Z,10.46
2022-11-17T10:09:25.632Z,10.56
2022-11-17T10:11:53.208Z,10.63
2022-11-17T10:14:23.045Z,10.55
2022-11-17T10:16:57.991Z,10.75
2022-11-17T10:19:31.261Z,10.79
2022-11-17T10:22:03.923Z,10.67
2022-11-17T10:24:36.351Z,10.73
2022-11-17T10:27:05.708Z,10.70
2022-11-17T10:29:32.159Z,10.75
2022-11-17T10:31:59.722Z,10.62
2022-11-17T10:34:40.589Z,10.81
2022-11-17T10:37:13.889Z,10.80
2022-11-17T10:39:42.646Z,10.65
2022-11-17T10:42:27.770Z,10.59
2022-11-17T10:44:57.150Z,10.71
2022-11-17T10:47:35.714Z,10.56
2022-11-17T10:50:18.824Z,10.72
2022-11-17T10:52:45.725Z,10.71
2022-11-17T10:55:26.048Z,10.73
2022-11-17T10:57:59.801Z,10.60
2022-11-17T11:00:31.993Z,10.59
2022-11-17T11:03:19.622Z,10.66
2022-11-17T11:06:16.121Z,10.62
2022-11-17T11:09:06.835Z,10.59
2022-11-17T11:11:43.434Z,10.69
2022-11-17T11:14:18.289Z,10.71
2022-11-17T11:16:48.385Z,10.67
2022-11-17T11:19:16.648Z,10.59
2022-11-17T11:22:10.584Z,10.65
2022-11-17T11:25:09.022Z,10.59
2022-11-17T11:27:52.246Z,10.31
2022-11-17T11:30:19.374Z,10.48
2022-11-17T11:33:05.873Z,10.54
2022-11-17T11:35:33.916Z,10.60
2022-11-17T11:38:30.604Z,10.42
2022-11-17T11:41:07.077Z,10.59
2022-11-17T11:43:45.920Z,10.42
2022-11-17T11:46:22.776Z,10.61
2022-11-17T11:48:52.256Z,10.51
2022-11-17T11:51:20.816Z,10.48
2022-11-17T11:53:53.433Z,10.54
2022-11-17T11:56:34.948Z,10.48
2022-11-17T11:59:14.863Z,10.44
2022-11-17T12:01:48.102Z,10.57
2022-11-17T12:04:39.940Z,10.42
2022-11-17T12:07:24.188Z,10.52
2022-11-17T12:10:00.925Z,10.53
2022-11-17T12:12:31.782Z,10.63
2022-11-17T12:15:19.513Z,10.54
2022-11-17T12:17:51.839Z,10.53
2022-11-17T12:20:33.425Z,10.48
2022-11-17T12:23:07.858Z,10.48
2022-11-17T12:25:36.086Z,10.40
2022-11-17T12:28:40.176Z,10.46
2022-11-17T12:31:10.655Z,10.48
2022-11-17T12:33:52.530Z,10.51
2022-11-17T12:36:30.807Z,10.53
2022-11-17T12:38:59.683Z,10.45
2022-11-17T12:41:47.969Z,10.49
2022-11-17T12:44:33.224Z,10.48
2022-11-17T12:47:15.281Z,10.35
2022-11-17T12:50:04.809Z,10.41
2022-11-17T12:52:43.370Z,10.44
2022-11-17T12:55:40.637Z,10.45
2022-11-17T12:58:19.384Z,10.53
2022-11-17T13:00:56.736Z,10.50
2022-11-17T13:03:37.355Z,10.33
2022-11-17T13:06:34.320Z,10.20
2022-11-17T13:09:01.713Z,10.26
2022-11-17T13:11:29.103Z,10.45
2022-11-17T13:14:09.378Z,10.34
2022-11-17T13:16:37.442Z,10.45
2022-11-17T13:19:04.404Z,10.42
2022-11-17T13:21:32.489Z,10.33
2022-11-17T13:24:00.314Z,10.24
2022-11-17T13:26:35.861Z,10.46
2022-11-17T13:29:13.145Z,10.32
2022-11-17T13:31:39.638Z,10.24
2022-11-17T13:34:13.593Z,10.48
2022-11-17T13:37:16.521Z,10.43
2022-11-17T13:40:00.360Z,10.41
2022-11-17T13:42:31.676Z,10.09
2022-11-17T13:45:00.893Z,10.36
2022-11-17T13:47:41.597Z,10.49
2022-11-17T13:50:26.696Z,10.42
2022-11-17T13:52:55.048Z,10.52
2022-11-17T13:55:22.738Z,10.40
2022-11-17T13:57:59.284Z,10.31
2022-11-17T14:00:26.382Z,10.25
2022-11-17T14:02:57.977Z,10.18
2022-11-17T14:05:28.571Z,10.13
2022-11-17T14:07:56.995Z,10.10
2022-11-17T14:10:29.040Z,10.23
2022-11-17T14:13:01.429Z,10.35
2022-11-17T14:15:30.088Z,10.24
2022-11-17T14:18:01.932Z,10.29
2022-11-17T14:20:33.488Z,10.31
2022-11-17T14:23:08.336Z,10.35
2022-11-17T14:25:37.421Z,10.47
2022-11-17T14:28:03.935Z,10.51
2022-11-17T14:30:30.383Z,10.41
2022-11-17T14:33:03.597Z,10.19
2022-11-17T14:35:32.985Z,10.23
2022-11-17T14:38:02.512Z,10.34
2022-11-17T14:40:28.957Z,10.37
2022-11-17T14:42:55.364Z,10.49
2022-11-17T14:45:21.955Z,10.44
2022-11-17T14:47:48.551Z,10.31
2022-11-17T14:50:17.234Z,10.33
2022-11-17T14:52:44.933Z,10.39
2022-11-17T14:55:14.702Z,10.53
2022-11-17T14:57:41.578Z,10.55
2022-11-17T15:00:09.498Z,10.58
2022-11-17T15:02:36.899Z,10.57
2022-11-17T15:05:03.821Z,10.63
2022-11-17T15:07:30.325Z,10.44
2022-11-17T15:09:57.281Z,10.51
2022-11-17T15:12:23.808Z,10.56
2022-11-17T15:14:50.233Z,10.38
2022-11-17T15:17:16.909Z,10.42
2022-11-17T15:19:43.902Z,10.57
2022-11-17T15:22:10.276Z,10.54
2022-11-17T15:24:36.698Z,10.51
2022-11-17T15:27:03.073Z,10.49
2022-11-17T15:29:29.506Z,10.38
2022-11-17T15:31:55.923Z,10.41
2022-11-17T15:34:22.370Z,10.21
2022-11-17T15:36:49.268Z,10.54
2022-11-17T15:39:16.200Z,10.59
2022-11-17T15:41:43.213Z,10.38
2022-11-17T15:44:09.732Z,10.27
2022-11-17T15:46:36.182Z,10.48
2022-11-17T15:49:02.621Z,10.42
2022-11-17T15:51:29.189Z,10.30
2022-11-17T15:53:58.145Z,10.47
2022-11-17T15:56:29.048Z,10.40
2022-11-17T15:59:03.411Z,10.38
2022-11-17T16:01:34.210Z,10.48
2022-11-17T16:04:03.486Z,10.49
2022-11-17T16:06:31.154Z,10.42
2022-11-17T16:08:57.993Z,10.34
2022-11-17T16:11:25.724Z,10.28
2022-11-17T16:13:59.358Z,10.42
2022-11-17T16:16:27.825Z,10.48
2022-11-17T16:18:54.557Z,10.32
2022-11-17T16:21:20.965Z,10.36
2022-11-17T16:23:49.738Z,10.25
2022-11-17T16:26:18.320Z,10.38
2022-11-17T16:28:44.891Z,10.36
2022-11-17T16:31:13.591Z,10.26
2022-11-17T16:33:40.127Z,10.24
2022-11-17T16:36:07.012Z,10.29
2022-11-17T16:38:33.496Z,10.35
2022-11-17T16:41:01.029Z,10.13
2022-11-17T16:43:27.444Z,10.25
2022-11-17T16:45:53.832Z,10.26
2022-11-17T16:48:20.240Z,10.25
2022-11-17T16:50:46.847Z,10.33
2022-11-17T16:53:14.054Z,10.39
2022-11-17T16:55:40.476Z,10.29
2022-11-17T16:58:07.458Z,10.34
2022-11-17T17:00:38.095Z,10.36
2022-11-17T17:03:04.523Z,10.28
2022-11-17T17:05:31.003Z,10.37
2022-11-17T17:07:57.450Z,10.20
2022-11-17T17:10:24.253Z,10.15
2022-11-17T17:12:50.636Z,10.33
2022-11-17T17:15:17.023Z,10.37
2022-11-17T17:17:43.451Z,10.19
2022-11-17T17:20:10.137Z,10.39
2022-11-17T17:22:36.511Z,10.36
2022-11-17T17:25:03.653Z,10.35
2022-11-17T17:27:31.157Z,10.28
2022-11-17T17:29:57.712Z,10.38
2022-11-17T17:32:24.144Z,10.31
2022-11-17T17:34:50.589Z,10.32
2022-11-17T17:37:18.041Z,10.33
2022-11-17T17:39:44.465Z,10.23
2022-11-17T17:42:10.904Z,10.35
2022-11-17T17:44:37.348Z,10.33
2022-11-17T17:47:03.866Z,10.32
2022-11-17T17:49:30.304Z,10.35
2022-11-17T17:51:56.753Z,10.44
2022-11-17T17:54:24.037Z,10.13
2022-11-17T17:56:50.525Z,10.35
2022-11-17T17:59:17.354Z,10.29
2022-11-17T18:01:46.120Z,10.26
2022-11-17T18:04:15.861Z,10.41
2022-11-17T18:06:45.902Z,10.40
2022-11-17T18:09:14.333Z,10.26
2022-11-17T18:11:45.927Z,10.30
2022-11-17T18:14:13.290Z,10.35
2022-11-17T18:16:40.115Z,10.13
2022-11-17T18:19:08.387Z,10.16
2022-11-17T18:21:35.284Z,10.33
2022-11-17T18:24:02.598Z,10.33
2022-11-17T18:26:31.630Z,10.32
2022-11-17T18:29:03.517Z,10.30
2022-11-17T18:31:32.212Z,10.33
2022-11-17T18:34:01.316Z,10.19
2022-11-17T18:36:28.322Z,10.01
2022-11-17T18:38:55.116Z,9.98
2022-11-17T18:41:22.006Z,10.11
2022-11-17T18:43:49.027Z,10.10
2022-11-17T18:46:18.669Z,10.03
2022-11-17T18:48:46.699Z,10.16
2022-11-17T18:51:20.419Z,10.01
2022-11-17T18:53:51.493Z,9.95
2022-11-17T18:56:20.733Z,10.07
2022-11-17T18:58:47.365Z,10.18
2022-11-17T19:01:18.325Z,10.11
2022-11-17T19:03:46.255Z,9.89
2022-11-17T19:06:13.887Z,9.98
2022-11-17T19:08:40.724Z,9.72
2022-11-17T19:11:08.353Z,10.10
2022-11-17T19:13:36.577Z,10.11
2022-11-17T19:16:11.922Z,10.11
2022-11-17T19:18:38.877Z,9.98
2022-11-17T19:21:12.990Z,10.19
2022-11-17T19:23:41.893Z,9.99
2022-11-17T19:26:14.892Z,10.10
2022-11-17T19:28:41.617Z,10.14
2022-11-17T19:31:13.288Z,10.01
2022-11-17T19:33:40.501Z,10.27
2022-11-17T19:36:09.409Z,10.20
2022-11-17T19:38:38.409Z,10.48
2022-11-17T19:41:12.208Z,10.34
2022-11-17T19:43:44.525Z,9.99
2022-11-17T19:46:14.460Z,9.88
2022-11-17T19:48:41.839Z,10.08
2022-11-17T19:51:20.110Z,9.79
2022-11-17T19:53:47.827Z,9.92
2022-11-17T19:56:14.745Z,9.66
2022-11-17T19:58:41.412Z,10.02
2022-11-17T20:01:09.920Z,10.01
2022-11-17T20:03:37.203Z,9.79
2022-11-17T20:06:04.008Z,9.79
2022-11-17T20:08:30.393Z,9.53
2022-11-17T20:11:12.303Z,9.74
2022-11-17T20:13:39.301Z,9.76
2022-11-17T20:16:11.929Z,9.63
2022-11-17T20:18:39.093Z,9.64
2022-11-17T20:21:06.555Z,9.65
2022-11-17T20:23:34.721Z,9.71
2022-11-17T20:26:09.156Z,9.53
2022-11-17T20:28:36.442Z,9.31
2022-11-17T20:31:17.302Z,9.65
2022-11-17T20:33:43.973Z,9.75
2022-11-17T20:36:15.534Z,9.70
2022-11-17T20:38:42.124Z,9.63
2022-11-17T20:41:10.814Z,9.56
2022-11-17T20:43:37.272Z,9.50
2022-11-17T20:46:04.381Z,9.57
2022-11-17T20:48:33.856Z,9.58
2022-11-17T20:51:09.844Z,9.46
2022-11-17T20:53:36.768Z,9.55
2022-11-17T20:56:04.866Z,9.44
2022-11-17T20:58:32.010Z,9.35
2022-11-17T21:00:58.523Z,9.36
2022-11-17T21:03:26.538Z,9.37
2022-11-17T21:05:59.401Z,9.34
2022-11-17T21:08:27.428Z,9.43
2022-11-17T21:10:57.006Z,9.36
2022-11-17T21:13:23.840Z,9.32
2022-11-17T21:16:08.522Z,9.22
2022-11-17T21:18:35.493Z,9.03
2022-11-17T21:21:04.470Z,9.23
2022-11-17T21:23:31.260Z,9.20
2022-11-17T21:25:57.746Z,9.10
2022-11-17T21:28:24.147Z,8.98
2022-11-17T21:30:50.692Z,9.10
2022-11-17T21:33:17.072Z,9.07
2022-11-17T21:35:43.445Z,9.04
2022-11-17T21:38:11.064Z,9.03
2022-11-17T21:40:37.476Z,9.02
2022-11-17T21:43:03.939Z,8.98
2022-11-17T21:45:30.350Z,8.49
2022-11-17T21:47:59.519Z,8.97
2022-11-17T21:50:26.126Z,8.81
2022-11-17T21:52:52.576Z,8.72
2022-11-17T21:55:19.015Z,8.84
2022-11-17T21:57:45.440Z,8.72
2022-11-17T22:00:12.200Z,8.70
2022-11-17T22:02:38.600Z,8.81
2022-11-17T22:05:05.383Z,8.82
2022-11-17T22:07:31.960Z,8.99
2022-11-17T22:09:58.429Z,8.97
2022-11-17T22:12:24.970Z,9.05
2022-11-17T22:14:51.426Z,8.64
2022-11-17T22:17:18.060Z,8.78
2022-11-17T22:19:44.489Z,8.88
2022-11-17T22:22:11.183Z,8.84
2022-11-17T22:24:39.617Z,8.76
2022-11-17T22:27:06.572Z,8.89
2022-11-17T22:29:33.134Z,8.84
2022-11-17T22:31:59.553Z,8.82
2022-11-17T22:34:25.964Z,8.61
2022-11-17T22:36:52.404Z,8.68
2022-11-17T22:39:19.158Z,8.86
2022-11-17T22:41:45.784Z,8.78
2022-11-17T22:44:13.796Z,8.73
2022-11-17T22:46:40.695Z,8.50
2022-11-17T22:49:07.102Z,8.60
2022-11-17T22:51:52.250Z,8.56
2022-11-17T22:54:18.703Z,8.47
2022-11-17T22:56:45.545Z,8.51
2022-11-17T22:59:12.425Z,8.50
2022-11-17T23:01:38.818Z,8.15
2022-11-17T23:04:06.013Z,8.57
2022-11-17T23:06:32.552Z,8.40
2022-11-17T23:08:59.022Z,8.48
2022-11-17T23:11:41.901Z,8.63
2022-11-17T23:14:10.949Z,8.62
2022-11-17T23:16:38.165Z,8.63
2022-11-17T23:19:05.159Z,8.52
2022-11-17T23:21:31.787Z,8.49
2022-11-17T23:23:58.258Z,8.37
2022-11-17T23:26:24.641Z,8.34
2022-11-17T23:28:51.110Z,8.62
2022-11-17T23:31:17.802Z,8.63
2022-11-17T23:33:46.607Z,8.35
2022-11-17T23:36:14.101Z,8.51
2022-11-17T23:38:40.525Z,8.52
2022-11-17T23:41:08.499Z,8.53
2022-11-17T23:43:34.889Z,8.30
2022-11-17T23:46:10.761Z,8.33
2022-11-17T23:48:37.332Z,8.47
2022-11-17T23:51:13.754Z,8.58
2022-11-17T23:53:40.488Z,8.20
2022-11-17T23:56:07.673Z,8.34
2022-11-17T23:58:34.114Z,8.43
